Time;durP1;ratioP1;P1;durP2;ratioP2;P2;SDS_P1;SDS_P2;PMS_P1;PMS_P2;Temp;Humidity;BMP_temperature;BMP_pressure;BME280_temperature;BME280_humidity;BME280_pressure;Samples;Min_cycle;Max_cycle;Signal;HPM_P1;HPM_P2
2022/09/16 00:02:12;;;;;;;60.75;50.05;;;22.70;60.00;;;;;;4964990;28;92667;-59
2022/09/16 00:04:39;;;;;;;59.80;49.72;;;22.70;60.00;;;;;;4975688;28;91484;-59
2022/09/16 00:07:05;;;;;;;59.72;49.90;;;22.80;60.10;;;;;;4970286;28;91938;-59
2022/09/16 00:09:30;;;;;;;60.33;49.83;;;22.70;60.00;;;;;;4963709;28;91254;-60
2022/09/16 00:11:56;;;;;;;61.38;49.70;;;22.70;59.90;;;;;;4968447;28;93034;-59
2022/09/16 00:14:21;;;;;;;60.42;50.10;;;22.70;59.90;;;;;;4967119;28;90026;-59
2022/09/16 00:16:47;;;;;;;60.38;50.15;;;22.70;60.00;;;;;;4964163;28;89111;-61
2022/09/16 00:19:13;;;;;;;60.30;49.85;;;22.70;60.80;;;;;;4972501;28;94715;-60
2022/09/16 00:21:38;;;;;;;59.45;49.88;;;22.70;60.00;;;;;;4957203;28;91564;-59
2022/09/16 00:24:04;;;;;;;60.00;49.90;;;22.70;60.00;;;;;;4965788;28;94265;-59
2022/09/16 00:26:30;;;;;;;61.80;50.00;;;22.70;60.00;;;;;;4963413;28;90673;-61
2022/09/16 00:28:55;;;;;;;61.05;50.25;;;22.70;60.00;;;;;;4973381;28;94149;-60
2022/09/16 00:31:21;;;;;;;61.08;49.70;;;22.70;59.90;;;;;;4969737;28;90025;-60
2022/09/16 00:33:47;;;;;;;60.95;49.75;;;22.70;60.00;;;;;;4966347;28;89933;-59
2022/09/16 00:36:19;;;;;;;60.10;49.50;;;22.70;60.00;;;;;;4963698;28;90307;-59
2022/09/16 00:38:45;;;;;;;60.67;49.72;;;22.70;60.00;;;;;;4967208;28;91085;-60
2022/09/16 00:41:18;;;;;;;59.20;49.75;;;22.60;59.90;;;;;;4966012;28;91832;-59
2022/09/16 00:43:50;;;;;;;59.22;49.58;;;22.60;60.00;;;;;;4972565;28;89640;-59
2022/09/16 00:46:17;;;;;;;;;;;22.60;60.10;;;;;;4970308;28;91707;-59
2022/09/16 00:48:43;;;;;;;58.95;49.40;;;22.60;60.20;;;;;;4964205;28;95638;-59
2022/09/16 00:51:11;;;;;;;60.38;49.85;;;22.50;60.10;;;;;;4964231;28;92456;-59
2022/09/16 00:53:41;;;;;;;59.95;49.63;;;22.60;60.10;;;;;;4964372;28;91577;-59
2022/09/16 00:56:10;;;;;;;61.78;49.60;;;22.50;60.00;;;;;;4970884;28;90105;-62
2022/09/16 00:58:42;;;;;;;59.17;49.72;;;22.60;60.10;;;;;;4968352;28;91981;-59
2022/09/16 01:01:07;;;;;;;61.67;49.65;;;22.50;60.00;;;;;;4971873;28;90993;-59
2022/09/16 01:03:46;;;;;;;58.22;49.22;;;22.50;60.00;;;;;;4967250;28;89693;-59
2022/09/16 01:06:14;;;;;;;58.63;49.28;;;22.50;60.10;;;;;;4957224;28;91104;-60
2022/09/16 01:08:41;;;;;;;59.35;49.25;;;22.50;60.00;;;;;;4972731;28;91209;-59
2022/09/16 01:11:07;;;;;;;58.65;49.75;;;22.60;60.10;;;;;;4964865;28;91230;-60
2022/09/16 01:13:33;;;;;;;58.97;49.63;;;22.60;60.10;;;;;;4969731;28;93332;-59
2022/09/16 01:16:24;;;;;;;59.17;49.67;;;22.50;60.00;;;;;;4963603;28;91609;-59
2022/09/16 01:19:09;;;;;;;58.63;49.33;;;22.50;60.00;;;;;;4958908;28;93417;-61
2022/09/16 01:21:42;;;;;;;61.90;49.90;;;22.50;60.10;;;;;;4959712;28;91148;-59
2022/09/16 01:24:27;;;;;;;59.75;49.63;;;22.50;60.10;;;;;;4971185;28;91285;-59
2022/09/16 01:27:27;;;;;;;58.90;49.28;;;22.40;60.30;;;;;;4967113;28;91280;-60
2022/09/16 01:30:16;;;;;;;59.28;49.35;;;22.40;60.20;;;;;;4961549;28;95265;-60
2022/09/16 01:32:48;;;;;;;59.55;49.47;;;22.40;60.20;;;;;;4965269;28;91123;-60
2022/09/16 01:35:36;;;;;;;59.42;49.50;;;22.40;60.30;;;;;;4974638;28;90122;-59
2022/09/16 01:38:33;;;;;;;59.38;49.35;;;22.40;60.30;;;;;;4973257;28;91145;-61
2022/09/16 01:41:21;;;;;;;60.72;49.35;;;22.30;60.30;;;;;;4964732;28;90997;-60
2022/09/16 01:44:02;;;;;;;59.25;49.35;;;22.40;60.40;;;;;;4968903;28;91971;-59
2022/09/16 01:46:39;;;;;;;58.80;49.25;;;22.30;60.40;;;;;;4973774;28;90048;-59
2022/09/16 01:49:19;;;;;;;60.92;49.33;;;22.30;60.30;;;;;;4966361;28;90786;-60
2022/09/16 01:52:04;;;;;;;58.75;49.35;;;22.30;60.30;;;;;;4973981;28;90893;-60
2022/09/16 01:54:48;;;;;;;58.95;49.25;;;22.30;60.30;;;;;;4970999;28;91344;-59
2022/09/16 01:57:41;;;;;;;57.80;49.05;;;22.30;60.30;;;;;;4970372;28;90582;-59
2022/09/16 02:00:09;;;;;;;59.00;49.20;;;22.30;60.30;;;;;;4965210;28;90742;-59
2022/09/16 02:02:55;;;;;;;59.10;49.10;;;22.30;60.40;;;;;;4963282;28;92511;-59
2022/09/16 02:05:47;;;;;;;61.08;49.42;;;22.30;60.40;;;;;;4966554;28;90671;-60
2022/09/16 02:08:19;;;;;;;58.70;49.22;;;22.30;60.40;;;;;;4970261;28;91088;-60
2022/09/16 02:11:03;;;;;;;59.05;49.42;;;22.20;60.40;;;;;;4965351;28;90551;-59
2022/09/16 02:13:34;;;;;;;58.75;49.15;;;22.20;60.50;;;;;;4967684;28;91256;-59
2022/09/16 02:16:33;;;;;;;59.42;49.10;;;22.20;60.40;;;;;;4969715;28;91461;-59
2022/09/16 02:19:05;;;;;;;59.05;48.97;;;22.20;60.50;;;;;;4960689;28;90323;-61
2022/09/16 02:21:35;;;;;;;57.85;49.03;;;22.10;60.50;;;;;;4958915;28;91194;-59
2022/09/16 02:24:07;;;;;;;58.43;49.00;;;22.10;60.40;;;;;;4961272;28;91442;-59
2022/09/16 02:26:39;;;;;;;57.92;48.75;;;22.20;60.40;;;;;;4962532;28;93670;-59
2022/09/16 02:29:13;;;;;;;59.80;49.15;;;22.20;60.30;;;;;;4965737;28;90061;-60
2022/09/16 02:31:42;;;;;;;57.63;48.90;;;22.10;60.30;;;;;;4967232;28;91268;-59
2022/09/16 02:34:15;;;;;;;57.67;48.92;;;22.20;60.50;;;;;;4965771;28;91926;-59
2022/09/16 02:36:45;;;;;;;59.70;49.22;;;22.10;60.40;;;;;;4961611;28;93897;-60
2022/09/16 02:39:16;;;;;;;58.90;48.85;;;22.10;60.40;;;;;;4967355;28;90935;-59
2022/09/16 02:41:42;;;;;;;;;;;22.10;60.50;;;;;;4962795;28;94258;-59
2022/09/16 02:44:09;;;;;;;58.22;48.75;;;22.00;60.40;;;;;;4958610;28;91414;-59
2022/09/16 02:46:38;;;;;;;58.33;49.00;;;22.00;60.50;;;;;;4967902;28;91294;-60
2022/09/16 02:49:28;;;;;;;58.53;48.78;;;22.00;60.60;;;;;;4962887;28;90005;-60
2022/09/16 02:52:16;;;;;;;57.17;48.83;;;22.00;60.40;;;;;;4961293;28;89325;-60
2022/09/16 02:54:56;;;;;;;57.92;48.88;;;22.00;60.40;;;;;;4964523;28;93457;-59
2022/09/16 02:57:22;;;;;;;57.83;48.45;;;22.00;60.40;;;;;;4957446;28;91990;-59
2022/09/16 02:59:49;;;;;;;58.20;49.05;;;22.00;60.40;;;;;;4956337;28;91306;-60
2022/09/16 03:02:15;;;;;;;58.55;48.92;;;22.00;60.30;;;;;;4962387;28;91864;-60
2022/09/16 03:04:40;;;;;;;57.67;48.95;;;22.00;60.30;;;;;;4960243;28;94363;-60
2022/09/16 03:07:09;;;;;;;57.97;49.08;;;22.00;60.40;;;;;;4957445;28;92085;-61
2022/09/16 03:09:39;;;;;;;58.75;48.88;;;22.00;60.40;;;;;;4968998;28;89938;-59
2022/09/16 03:12:21;;;;;;;58.40;48.72;;;22.00;60.50;;;;;;4962385;28;90117;-60
2022/09/16 03:14:46;;;;;;;58.25;48.75;;;22.00;61.20;;;;;;4964748;28;95695;-59
2022/09/16 03:17:22;;;;;;;59.15;49.08;;;21.90;60.40;;;;;;4970082;28;90801;-59
2022/09/16 03:19:50;;;;;;;57.38;48.90;;;21.90;60.30;;;;;;4956885;28;89942;-60
2022/09/16 03:22:40;;;;;;;57.40;48.65;;;21.90;60.40;;;;;;4957689;28;90777;-61
2022/09/16 03:25:30;;;;;;;57.90;48.80;;;21.90;60.40;;;;;;4962961;28;91871;-60
2022/09/16 03:27:58;;;;;;;57.65;49.03;;;21.90;60.40;;;;;;4964521;28;92041;-59
2022/09/16 03:30:24;;;;;;;57.97;48.75;;;21.90;60.50;;;;;;4972822;28;98026;-59
2022/09/16 03:32:57;;;;;;;58.40;49.03;;;21.90;60.40;;;;;;4968281;28;97178;-59
2022/09/16 03:35:30;;;;;;;57.10;48.85;;;21.90;60.30;;;;;;4967406;28;91740;-59
2022/09/16 03:37:59;;;;;;;57.88;48.70;;;21.80;60.40;;;;;;4971011;28;92857;-60
2022/09/16 03:40:28;;;;;;;59.53;48.72;;;21.90;60.30;;;;;;4969690;28;93553;-59
2022/09/16 03:42:56;;;;;;;58.08;48.97;;;21.80;60.30;;;;;;4965744;28;91117;-59
2022/09/16 03:45:23;;;;;;;57.15;48.75;;;21.80;60.30;;;;;;4964264;28;98297;-59
2022/09/16 03:47:51;;;;;;;57.35;48.55;;;21.80;60.30;;;;;;4970276;28;91713;-61
2022/09/16 03:50:18;;;;;;;58.60;48.75;;;21.80;60.40;;;;;;4968561;28;96189;-59
2022/09/16 03:52:44;;;;;;;57.38;48.70;;;21.70;60.30;;;;;;4965176;28;94099;-59
2022/09/16 03:55:10;;;;;;;56.83;48.42;;;21.80;60.30;;;;;;4964741;28;90227;-59
2022/09/16 03:57:36;;;;;;;58.90;48.60;;;21.80;60.50;;;;;;4966606;28;91887;-60
2022/09/16 04:00:03;;;;;;;57.10;48.65;;;21.70;60.40;;;;;;4970240;28;90271;-59
2022/09/16 04:02:29;;;;;;;57.15;48.67;;;21.70;60.30;;;;;;4958375;28;93179;-59
2022/09/16 04:04:54;;;;;;;57.55;48.65;;;21.70;60.30;;;;;;4960995;28;91248;-59
2022/09/16 04:07:20;;;;;;;56.63;48.63;;;21.70;60.20;;;;;;4971042;28;93527;-59
2022/09/16 04:09:46;;;;;;;56.97;48.58;;;21.70;60.20;;;;;;4967981;28;93025;-59
2022/09/16 04:12:12;;;;;;;58.13;48.58;;;21.70;60.40;;;;;;4972892;28;90269;-59
2022/09/16 04:14:38;;;;;;;57.42;48.80;;;21.70;60.30;;;;;;4970000;28;96100;-60
2022/09/16 04:17:03;;;;;;;57.50;48.58;;;21.70;60.40;;;;;;4969577;28;90815;-59
2022/09/16 04:19:30;;;;;;;57.85;48.47;;;21.70;60.50;;;;;;4961343;28;90707;-59
2022/09/16 04:21:55;;;;;;;57.08;48.53;;;21.70;60.40;;;;;;4968992;28;92746;-59
2022/09/16 04:24:21;;;;;;;56.95;48.38;;;21.60;60.40;;;;;;4962394;28;91779;-61
2022/09/16 04:26:47;;;;;;;56.83;48.50;;;21.60;60.50;;;;;;4967034;28;90872;-60
2022/09/16 04:29:12;;;;;;;58.83;48.40;;;21.60;60.50;;;;;;4967762;28;90295;-59
2022/09/16 04:31:38;;;;;;;57.42;48.42;;;21.60;60.30;;;;;;4967820;28;90033;-59
2022/09/16 04:34:04;;;;;;;57.17;48.55;;;21.60;60.50;;;;;;4967411;28;90164;-59
2022/09/16 04:36:31;;;;;;;57.55;48.80;;;21.60;60.60;;;;;;4966785;28;91387;-59
2022/09/16 04:38:57;;;;;;;57.28;48.53;;;21.60;60.60;;;;;;4962665;28;92992;-61
2022/09/16 04:41:24;;;;;;;58.70;48.85;;;21.50;60.90;;;;;;4973828;28;90209;-59
2022/09/16 04:43:52;;;;;;;57.42;48.63;;;21.50;61.50;;;;;;4967472;28;92325;-59
2022/09/16 04:46:18;;;;;;;57.30;48.63;;;21.50;60.50;;;;;;4971983;28;91900;-59
2022/09/16 04:48:48;;;;;;;58.78;48.75;;;21.60;60.50;;;;;;4965783;28;92874;-59
2022/09/16 04:51:14;;;;;;;57.58;48.28;;;21.60;60.60;;;;;;4957107;28;90792;-60
2022/09/16 04:53:42;;;;;;;59.95;48.60;;;21.60;60.60;;;;;;4964836;28;92205;-59
2022/09/16 04:56:21;;;;;;;58.00;48.83;;;21.50;60.60;;;;;;4963469;28;90894;-60
2022/09/16 04:58:49;;;;;;;57.08;48.28;;;21.50;60.80;;;;;;4963588;28;90342;-59
2022/09/16 05:01:17;;;;;;;57.50;48.60;;;21.50;60.90;;;;;;4962667;28;93003;-60
2022/09/16 05:03:46;;;;;;;57.15;48.70;;;21.50;60.70;;;;;;4958918;28;93412;-62
2022/09/16 05:06:17;;;;;;;57.92;48.83;;;21.50;60.40;;;;;;4968953;28;91913;-59
2022/09/16 05:08:43;;;;;;;;;;;21.60;60.30;;;;;;4969680;28;98662;-60
2022/09/16 05:11:14;;;;;;;58.17;48.67;;;21.60;60.30;;;;;;4959566;28;91562;-59
2022/09/16 05:13:40;;;;;;;58.15;48.38;;;21.60;60.50;;;;;;4967285;28;90678;-59
2022/09/16 05:16:14;;;;;;;56.50;48.53;;;21.50;60.60;;;;;;4973161;28;93153;-59
2022/09/16 05:18:42;;;;;;;60.10;48.63;;;21.50;60.60;;;;;;4968068;28;91530;-59
2022/09/16 05:21:11;;;;;;;58.22;48.53;;;21.50;60.80;;;;;;4967118;28;90606;-60
2022/09/16 05:23:37;;;;;;;56.88;48.30;;;21.40;60.70;;;;;;4970181;28;90997;-59
2022/09/16 05:26:06;;;;;;;57.13;48.42;;;21.50;60.60;;;;;;4962186;28;93139;-59
2022/09/16 05:28:33;;;;;;;58.33;48.55;;;21.50;61.40;;;;;;4960838;28;93094;-61
2022/09/16 05:31:14;;;;;;;57.72;48.70;;;21.50;60.30;;;;;;4964536;28;90451;-59
2022/09/16 05:33:42;;;;;;;57.05;48.50;;;21.60;60.30;;;;;;4961601;28;90872;-61
2022/09/16 05:36:13;;;;;;;59.65;49.13;;;21.60;60.40;;;;;;4977037;28;91310;-60
2022/09/16 05:38:40;;;;;;;59.90;48.83;;;21.60;60.20;;;;;;4973602;28;90710;-61
2022/09/16 05:41:05;;;;;;;61.22;49.20;;;21.70;59.90;;;;;;4965326;28;91755;-60
2022/09/16 05:43:32;;;;;;;58.53;48.65;;;21.70;60.10;;;;;;4960997;28;92272;-60
2022/09/16 05:45:58;;;;;;;62.83;49.30;;;21.70;60.30;;;;;;4957995;28;92410;-60
2022/09/16 05:48:24;;;;;;;61.92;50.05;;;21.70;60.20;;;;;;4974389;28;90780;-60
2022/09/16 05:50:55;;;;;;;61.15;49.67;;;21.70;60.10;;;;;;4977378;28;90444;-60
2022/09/16 05:53:21;;;;;;;61.53;49.30;;;21.70;60.20;;;;;;4965734;28;93502;-59
2022/09/16 05:56:04;;;;;;;63.03;49.60;;;21.60;60.30;;;;;;4965190;28;95938;-60
2022/09/16 05:58:31;;;;;;;62.13;49.28;;;21.60;60.30;;;;;;4970439;28;90066;-60
2022/09/16 06:01:08;;;;;;;58.80;49.13;;;21.60;60.20;;;;;;4967992;28;90046;-59
2022/09/16 06:03:36;;;;;;;59.28;48.97;;;21.60;60.30;;;;;;4967963;28;91147;-60
2022/09/16 06:06:15;;;;;;;57.80;48.80;;;21.50;60.30;;;;;;4969030;28;90941;-60
2022/09/16 06:08:41;;;;;;;60.65;49.00;;;21.50;60.10;;;;;;4974964;28;89902;-59
2022/09/16 06:11:09;;;;;;;61.63;49.53;;;21.60;60.10;;;;;;4964359;28;89331;-60
2022/09/16 06:13:36;;;;;;;60.25;49.05;;;21.50;60.20;;;;;;4969508;28;91277;-60
2022/09/16 06:16:03;;;;;;;58.28;48.92;;;21.50;60.30;;;;;;4966417;28;95674;-60
2022/09/16 06:18:30;;;;;;;59.05;49.08;;;21.50;60.30;;;;;;4968471;28;92046;-60
2022/09/16 06:20:57;;;;;;;59.53;49.10;;;21.50;60.20;;;;;;4974429;28;89979;-60
2022/09/16 06:23:23;;;;;;;59.75;48.75;;;21.50;60.20;;;;;;4972980;28;90600;-59
2022/09/16 06:25:58;;;;;;;57.78;48.55;;;21.50;60.20;;;;;;4967706;28;90766;-59
2022/09/16 06:28:24;;;;;;;57.55;48.67;;;21.50;60.20;;;;;;4972536;28;90199;-60
2022/09/16 06:31:10;;;;;;;59.97;48.85;;;21.50;60.00;;;;;;4967135;28;90207;-59
2022/09/16 06:33:36;;;;;;;58.90;48.75;;;21.60;60.00;;;;;;4971182;28;91936;-59
2022/09/16 06:36:06;;;;;;;58.90;48.83;;;21.60;59.90;;;;;;4977106;28;91063;-61
2022/09/16 06:38:32;;;;;;;58.45;49.17;;;21.60;59.80;;;;;;4966203;28;91335;-59
2022/09/16 06:41:03;;;;;;;58.42;49.05;;;21.60;59.80;;;;;;4969709;28;90326;-59
2022/09/16 06:43:30;;;;;;;58.58;48.75;;;21.60;59.80;;;;;;4974347;28;92012;-60
2022/09/16 06:46:23;;;;;;;58.33;48.67;;;21.60;59.70;;;;;;4968209;28;92133;-60
2022/09/16 06:48:51;;;;;;;60.40;48.75;;;21.60;59.70;;;;;;4958473;28;90575;-59
2022/09/16 06:51:27;;;;;;;62.17;48.97;;;21.70;59.70;;;;;;4966866;28;90997;-59
2022/09/16 06:53:59;;;;;;;59.00;48.95;;;21.70;59.40;;;;;;4972079;28;90939;-60
2022/09/16 06:56:25;;;;;;;58.28;48.83;;;21.70;59.30;;;;;;4975706;28;90429;-59
2022/09/16 06:58:54;;;;;;;57.08;48.50;;;21.80;59.30;;;;;;4974350;28;91880;-59
2022/09/16 07:01:26;;;;;;;59.80;48.80;;;21.80;59.10;;;;;;4967412;28;90449;-59
2022/09/16 07:03:53;;;;;;;58.17;48.63;;;21.80;58.90;;;;;;4968993;28;91739;-59
2022/09/16 07:06:21;;;;;;;60.17;48.95;;;21.80;58.90;;;;;;4975301;28;90284;-60
2022/09/16 07:08:47;;;;;;;58.10;48.75;;;21.80;58.80;;;;;;4966637;28;90946;-60
2022/09/16 07:11:18;;;;;;;57.72;48.47;;;21.90;58.80;;;;;;4968426;28;90605;-59
2022/09/16 07:13:46;;;;;;;57.50;48.65;;;21.90;58.90;;;;;;4969406;28;91200;-60
2022/09/16 07:16:17;;;;;;;58.28;48.53;;;21.90;58.70;;;;;;4958354;28;91186;-60
2022/09/16 07:18:43;;;;;;;57.80;48.90;;;21.90;58.70;;;;;;4967834;28;89547;-60
2022/09/16 07:21:14;;;;;;;58.03;48.65;;;21.90;58.60;;;;;;4965963;28;90117;-60
2022/09/16 07:23:41;;;;;;;58.85;48.72;;;21.90;58.60;;;;;;4966990;28;91495;-60
2022/09/16 07:26:15;;;;;;;59.55;48.92;;;21.90;58.50;;;;;;4961510;28;95494;-61
2022/09/16 07:28:42;;;;;;;57.45;48.75;;;22.00;58.70;;;;;;4970959;28;90631;-60
2022/09/16 07:31:10;;;;;;;58.13;48.58;;;21.90;58.60;;;;;;4968627;28;95730;-59
2022/09/16 07:33:44;;;;;;;57.90;48.70;;;22.00;58.60;;;;;;4970624;28;93328;-60
2022/09/16 07:36:12;;;;;;;59.28;48.88;;;21.90;58.40;;;;;;4967545;28;92987;-59
2022/09/16 07:38:38;;;;;;;58.60;48.95;;;22.00;58.60;;;;;;4957501;28;89887;-61
2022/09/16 07:41:19;;;;;;;59.38;48.85;;;22.00;58.50;;;;;;4957378;28;92789;-60
2022/09/16 07:43:46;;;;;;;58.80;48.65;;;22.00;58.60;;;;;;4963103;28;92611;-60
2022/09/16 07:46:15;;;;;;;57.72;48.35;;;22.00;58.60;;;;;;4963008;28;91379;-60
2022/09/16 07:48:42;;;;;;;57.25;48.72;;;22.00;58.50;;;;;;4956975;28;95169;-60
2022/09/16 07:51:16;;;;;;;57.58;48.80;;;22.00;58.50;;;;;;4969837;28;94843;-60
2022/09/16 07:53:43;;;;;;;57.38;48.85;;;22.00;58.50;;;;;;4971718;28;91265;-59
2022/09/16 07:56:21;;;;;;;58.10;48.83;;;22.10;58.50;;;;;;4958135;28;90777;-59
2022/09/16 07:58:48;;;;;;;61.25;49.05;;;22.10;58.40;;;;;;4965585;28;91441;-59
2022/09/16 08:01:15;;;;;;;59.08;48.88;;;22.10;58.30;;;;;;4964279;28;93871;-60
2022/09/16 08:03:42;;;;;;;58.55;48.80;;;22.20;58.00;;;;;;4969278;28;91093;-60
2022/09/16 08:06:14;;;;;;;60.60;48.75;;;22.30;57.80;;;;;;4967821;28;91066;-59
2022/09/16 08:08:40;;;;;;;58.10;48.97;;;22.40;57.70;;;;;;4969973;28;89968;-59
2022/09/16 08:11:07;;;;;;;57.78;48.75;;;22.40;57.50;;;;;;4969451;28;90515;-59
2022/09/16 08:13:35;;;;;;;58.05;48.92;;;22.30;57.40;;;;;;4969324;28;99068;-60
2022/09/16 08:16:04;;;;;;;60.40;49.03;;;22.40;57.50;;;;;;4958812;28;89931;-59
2022/09/16 08:18:30;;;;;;;58.47;48.92;;;22.40;57.30;;;;;;4964294;28;91260;-59
2022/09/16 08:20:56;;;;;;;60.20;48.63;;;22.40;57.30;;;;;;4964459;28;90182;-59
2022/09/16 08:23:22;;;;;;;58.15;49.05;;;22.50;57.40;;;;;;4962294;28;91454;-59
2022/09/16 08:25:56;;;;;;;62.05;49.15;;;22.40;57.40;;;;;;4964079;28;97148;-59
2022/09/16 08:28:22;;;;;;;59.03;49.13;;;22.50;57.50;;;;;;4969149;28;89925;-60
2022/09/16 08:30:47;;;;;;;59.47;49.05;;;22.50;57.50;;;;;;4962353;28;95723;-60
2022/09/16 08:33:13;;;;;;;59.35;49.35;;;22.50;57.60;;;;;;4960751;28;91059;-61
2022/09/16 08:35:39;;;;;;;59.30;49.20;;;22.50;57.60;;;;;;4961979;28;96554;-61
2022/09/16 08:38:04;;;;;;;60.95;49.28;;;22.50;57.70;;;;;;4941374;28;90183;-59
2022/09/16 08:40:34;;;;;;;59.20;49.15;;;22.50;57.80;;;;;;4964239;28;93666;-60
2022/09/16 08:43:23;;;;;;;60.80;49.08;;;22.40;57.70;;;;;;4963380;28;92548;-59
2022/09/16 08:46:12;;;;;;;60.83;49.55;;;22.40;57.60;;;;;;4957239;28;90899;-59
2022/09/16 08:48:49;;;;;;;60.78;50.03;;;22.50;57.20;;;;;;4958478;28;91064;-59
2022/09/16 08:51:19;;;;;;;59.95;49.70;;;22.50;56.80;;;;;;4952746;28;92932;-63
2022/09/16 08:54:25;;;;;;;63.35;49.80;;;22.60;56.90;;;;;;4963484;28;92065;-63
2022/09/16 08:56:54;;;;;;;63.83;49.85;;;22.70;57.00;;;;;;4966822;28;90029;-64
2022/09/16 08:59:24;;;;;;;61.05;49.70;;;22.60;57.20;;;;;;4967921;28;90426;-60
2022/09/16 09:02:03;;;;;;;61.60;49.47;;;22.70;57.40;;;;;;4959586;28;92573;-62
2022/09/16 09:04:31;;;;;;;62.90;49.63;;;22.60;57.80;;;;;;4962839;28;92018;-64
2022/09/16 09:07:27;;;;;;;64.20;49.65;;;22.60;58.00;;;;;;4960777;28;91929;-64
2022/09/16 09:10:11;;;;;;;63.33;49.67;;;22.60;57.80;;;;;;4959036;28;91102;-64
2022/09/16 09:13:10;;;;;;;60.65;49.95;;;22.60;57.40;;;;;;4963413;28;89992;-64
2022/09/16 09:15:46;;;;;;;62.33;50.25;;;22.60;57.30;;;;;;4953934;28;91969;-63
2022/09/16 09:18:26;;;;;;;59.70;49.60;;;22.60;57.20;;;;;;4966157;28;91228;-64
2022/09/16 09:21:19;;;;;;;60.33;49.55;;;22.60;57.10;;;;;;4964822;28;90689;-64
2022/09/16 09:24:14;;;;;;;60.83;49.65;;;22.60;57.10;;;;;;4964360;28;91783;-64
2022/09/16 09:27:02;;;;;;;60.78;49.35;;;22.50;57.70;;;;;;4964511;28;95673;-64
2022/09/16 09:29:44;;;;;;;62.03;49.42;;;22.40;57.90;;;;;;4957136;28;94938;-63
2022/09/16 09:32:17;;;;;;;62.92;49.58;;;22.50;57.90;;;;;;4963460;28;90140;-63
2022/09/16 09:35:28;;;;;;;64.43;49.92;;;22.60;58.00;;;;;;4963158;28;89515;-63
2022/09/16 09:38:18;;;;;;;60.75;49.42;;;22.70;58.00;;;;;;4967392;28;92484;-63
2022/09/16 09:40:55;;;;;;;62.92;49.47;;;22.70;57.80;;;;;;4962967;28;91173;-64
2022/09/16 09:43:51;;;;;;;61.70;49.38;;;22.70;57.70;;;;;;4970100;28;97908;-63
2022/09/16 09:46:32;;;;;;;59.95;49.38;;;22.70;58.00;;;;;;4972346;28;91390;-63
2022/09/16 09:49:25;;;;;;;60.30;49.30;;;22.70;58.00;;;;;;4958832;28;91264;-63
2022/09/16 09:52:06;;;;;;;59.35;49.15;;;22.70;58.10;;;;;;4972637;28;91223;-62
2022/09/16 09:54:36;;;;;;;58.85;49.15;;;22.70;58.50;;;;;;4970447;28;94207;-63
2022/09/16 09:57:16;;;;;;;60.60;49.35;;;22.70;58.50;;;;;;4958906;28;92760;-62
2022/09/16 09:59:59;;;;;;;60.33;49.22;;;22.70;58.80;;;;;;4963329;28;91777;-63
2022/09/16 10:02:25;;;;;;;59.63;49.15;;;22.80;59.00;;;;;;4959099;28;90846;-63
2022/09/16 10:04:51;;;;;;;64.25;49.45;;;22.70;58.70;;;;;;4966533;28;90630;-63
2022/09/16 10:07:19;;;;;;;77.25;52.13;;;22.80;58.40;;;;;;4970482;28;91002;-52
2022/09/16 10:10:10;;;;;;;73.80;51.83;;;23.30;57.60;;;;;;4962655;28;95350;-55
2022/09/16 10:12:36;;;;;;;74.78;51.40;;;22.90;58.20;;;;;;4959365;28;91057;-54
2022/09/16 10:15:03;;;;;;;76.85;51.53;;;22.60;58.90;;;;;;4967155;28;89886;-55
2022/09/16 10:17:30;;;;;;;71.75;51.10;;;22.40;59.50;;;;;;4971086;28;89941;-56
2022/09/16 10:20:05;;;;;;;72.15;51.45;;;22.30;59.60;;;;;;4970419;28;91282;-56
2022/09/16 10:22:33;;;;;;;72.22;51.15;;;22.30;59.80;;;;;;4967485;28;90120;-57
2022/09/16 10:25:06;;;;;;;75.80;51.42;;;22.30;59.90;;;;;;4962696;28;89618;-54
2022/09/16 10:27:34;;;;;;;72.95;51.28;;;22.30;59.80;;;;;;4963913;28;89860;-58
2022/09/16 10:30:15;;;;;;;74.07;51.50;;;22.30;59.90;;;;;;4968511;28;89998;-56
2022/09/16 10:33:01;;;;;;;77.25;51.33;;;22.30;59.90;;;;;;4965006;28;91508;-56
2022/09/16 10:35:29;;;;;;;75.43;51.63;;;22.40;59.90;;;;;;4969085;28;90793;-55
2022/09/16 10:38:05;;;;;;;73.10;51.58;;;22.40;60.00;;;;;;4963121;28;90006;-56
2022/09/16 10:40:32;;;;;;;77.43;51.65;;;22.40;59.90;;;;;;4959137;28;90767;-56
2022/09/16 10:43:03;;;;;;;72.57;51.50;;;22.40;60.00;;;;;;4964153;28;90447;-55
2022/09/16 10:45:30;;;;;;;;;;;22.40;60.00;;;;;;4967953;28;89902;-55
2022/09/16 10:48:03;;;;;;;72.05;51.35;;;22.40;59.90;;;;;;4963708;28;90205;-54
2022/09/16 10:50:29;;;;;;;72.28;51.42;;;22.40;60.40;;;;;;4962391;28;93525;-55
2022/09/16 10:52:54;;;;;;;73.75;51.50;;;22.50;60.40;;;;;;4960986;28;89826;-56
2022/09/16 10:55:25;;;;;;;73.80;51.35;;;22.50;60.10;;;;;;4965377;28;90341;-55
2022/09/16 10:57:51;;;;;;;74.28;51.83;;;22.50;60.10;;;;;;4965157;28;89897;-57
2022/09/16 11:00:23;;;;;;;72.97;51.47;;;22.50;60.40;;;;;;4962575;28;91992;-56
2022/09/16 11:02:49;;;;;;;73.03;51.60;;;22.50;60.30;;;;;;4959971;28;90065;-56
2022/09/16 11:05:32;;;;;;;77.55;51.63;;;22.50;60.00;;;;;;4965850;28;90221;-56
2022/09/16 11:08:16;;;;;;;73.70;51.17;;;22.40;60.10;;;;;;4967926;28;94079;-54
2022/09/16 11:11:04;;;;;;;72.75;51.45;;;22.40;59.90;;;;;;4958160;28;91385;-61
2022/09/16 11:13:39;;;;;;;72.50;51.42;;;22.40;60.00;;;;;;4958035;28;89837;-57
2022/09/16 11:16:22;;;;;;;73.35;51.50;;;22.40;59.70;;;;;;4974937;28;92074;-54
2022/09/16 11:19:15;;;;;;;74.75;51.35;;;22.50;59.70;;;;;;4979892;28;88833;-54
2022/09/16 11:21:55;;;;;;;74.53;51.70;;;22.50;59.70;;;;;;4972612;28;94096;-57
2022/09/16 11:24:43;;;;;;;72.47;51.65;;;22.60;59.40;;;;;;4966448;28;95234;-55
2022/09/16 11:27:35;;;;;;;73.18;51.85;;;22.70;59.00;;;;;;4960604;28;92233;-54
2022/09/16 11:30:17;;;;;;;72.10;51.35;;;22.60;58.90;;;;;;4961437;28;90324;-57
2022/09/16 11:32:54;;;;;;;;;;;22.60;58.80;;;;;;4961097;28;91860;-53
2022/09/16 11:35:35;;;;;;;72.88;51.28;;;22.50;59.00;;;;;;4971378;28;94421;-55
2022/09/16 11:38:37;;;;;;;74.30;51.47;;;22.50;59.10;;;;;;4963313;28;90505;-56
2022/09/16 11:41:35;;;;;;;73.38;51.78;;;22.50;59.20;;;;;;4960362;28;91536;-55
2022/09/16 11:44:16;;;;;;;73.68;51.55;;;22.50;59.30;;;;;;4963279;28;90491;-57
2022/09/16 11:47:08;;;;;;;72.75;51.25;;;22.50;59.20;;;;;;4966803;28;90674;-54
2022/09/16 11:49:42;;;;;;;76.38;51.60;;;22.60;59.30;;;;;;4965755;28;93172;-56
2022/09/16 11:52:32;;;;;;;74.90;52.22;;;22.60;59.20;;;;;;4966893;28;89482;-58
2022/09/16 11:55:30;;;;;;;75.25;52.08;;;22.60;59.10;;;;;;4969089;28;91167;-56
2022/09/16 11:58:00;;;;;;;73.00;51.88;;;22.60;59.30;;;;;;4968655;28;90849;-56
2022/09/16 12:00:30;;;;;;;73.15;51.70;;;22.60;59.20;;;;;;4965492;28;89964;-58
2022/09/16 12:03:10;;;;;;;73.07;51.58;;;22.60;59.20;;;;;;4971507;28;89842;-57
2022/09/16 12:05:44;;;;;;;74.05;51.70;;;22.60;59.30;;;;;;4961963;28;90175;-56
2022/09/16 12:08:34;;;;;;;74.97;51.88;;;22.60;59.50;;;;;;4967881;28;92233;-55
2022/09/16 12:11:20;;;;;;;75.18;51.55;;;22.50;59.40;;;;;;4968604;28;89900;-58
2022/09/16 12:13:57;;;;;;;75.80;52.38;;;22.60;59.50;;;;;;4966359;28;92487;-55
2022/09/16 12:16:38;;;;;;;76.53;52.42;;;22.60;59.50;;;;;;4969530;28;90315;-57
2022/09/16 12:19:11;;;;;;;72.78;51.60;;;22.60;59.40;;;;;;4962040;28;90933;-54
2022/09/16 12:21:46;;;;;;;74.60;51.88;;;22.60;59.40;;;;;;4966968;28;91760;-55
2022/09/16 12:24:23;;;;;;;76.35;52.55;;;22.60;59.40;;;;;;4967066;28;90961;-56
2022/09/16 12:27:00;;;;;;;74.15;52.00;;;22.70;59.50;;;;;;4965447;28;91464;-55
2022/09/16 12:30:15;;;;;;;75.75;52.20;;;22.70;59.50;;;;;;4963685;28;91025;-56
2022/09/16 12:32:58;;;;;;;73.55;51.88;;;22.70;59.40;;;;;;4965042;28;90291;-58
2022/09/16 12:35:37;;;;;;;73.18;51.53;;;22.70;59.50;;;;;;4972876;28;90325;-54
2022/09/16 12:38:03;;;;;;;74.03;51.75;;;22.60;59.50;;;;;;4965065;28;91101;-56
2022/09/16 12:40:46;;;;;;;72.93;51.75;;;22.60;59.50;;;;;;4962938;28;90234;-58
2022/09/16 12:43:53;;;;;;;74.18;51.58;;;22.60;59.40;;;;;;4976878;28;89411;-58
2022/09/16 12:46:37;;;;;;;73.90;51.58;;;22.70;59.20;;;;;;4968558;28;90166;-56
2022/09/16 12:49:08;;;;;;;74.85;51.72;;;22.70;59.10;;;;;;4968123;28;91618;-57
2022/09/16 12:51:55;;;;;;;72.43;51.55;;;22.70;59.10;;;;;;4966294;28;90841;-56
2022/09/16 12:54:43;;;;;;;77.47;51.95;;;22.60;59.00;;;;;;4962662;28;90577;-59
2022/09/16 12:57:39;;;;;;;73.30;51.55;;;22.60;59.00;;;;;;4961682;28;90023;-56
2022/09/16 13:00:26;;;;;;;74.65;51.58;;;22.60;59.00;;;;;;4976123;28;91276;-58
2022/09/16 13:02:53;;;;;;;74.90;51.50;;;22.60;58.90;;;;;;4961462;28;93291;-55